Time;durP1;ratioP1;P1;durP2;ratioP2;P2;SDS_P1;SDS_P2;PMS_P1;PMS_P2;Temp;Humidity;BMP_temperature;BMP_pressure;BME280_temperature;BME280_humidity;BME280_pressure;Samples;Min_cycle;Max_cycle;Signal;HPM_P1;HPM_P2
2021/05/16 00:01:25;;;;;;;1.67;0.98;;;;;;;12.51;68.22;95508.57;1715619;81;21263;-83
2021/05/16 00:03:51;;;;;;;1.45;0.95;;;;;;;12.56;68.46;95503.03;1739734;81;20987;-84
2021/05/16 00:06:17;;;;;;;1.37;1.27;;;;;;;12.58;68.20;95512.73;1720314;82;21016;-83
2021/05/16 00:08:42;;;;;;;0.78;0.68;;;;;;;12.60;68.22;95504.19;1712148;81;20938;-83
2021/05/16 00:11:08;;;;;;;2.00;0.90;;;;;;;12.60;68.30;95499.48;1730762;82;20998;-83
2021/05/16 00:13:34;;;;;;;1.15;1.05;;;;;;;12.59;68.54;95502.59;1702777;81;20982;-83
2021/05/16 00:16:00;;;;;;;1.02;0.80;;;;;;;12.58;68.39;95501.00;1729724;81;20989;-83
2021/05/16 00:18:26;;;;;;;1.40;0.90;;;;;;;12.55;68.28;95510.55;1715893;82;20939;-83
2021/05/16 00:20:52;;;;;;;1.27;0.88;;;;;;;12.56;68.43;95515.27;1711983;81;20955;-83
2021/05/16 00:23:18;;;;;;;1.15;1.02;;;;;;;12.59;68.32;95516.92;1715113;81;20967;-83
2021/05/16 00:25:44;;;;;;;2.27;1.00;;;;;;;12.61;68.19;95514.90;1712062;81;20986;-83
2021/05/16 00:28:11;;;;;;;2.15;0.80;;;;;;;12.63;68.27;95515.98;1713187;82;21063;-84
2021/05/16 00:30:38;;;;;;;1.30;0.90;;;;;;;12.62;68.29;95513.89;1729602;81;20963;-83
2021/05/16 00:33:03;;;;;;;1.70;0.80;;;;;;;12.59;67.94;95506.50;1713186;81;21304;-83
2021/05/16 00:35:31;;;;;;;1.25;0.70;;;;;;;12.58;68.07;95506.72;1713293;81;20934;-84
2021/05/16 00:37:58;;;;;;;1.92;0.85;;;;;;;12.55;68.72;95498.83;1733139;81;20970;-84
2021/05/16 00:40:24;;;;;;;1.07;0.78;;;;;;;12.52;68.65;95498.44;1711964;82;20974;-84
2021/05/16 00:42:50;;;;;;;1.02;0.60;;;;;;;12.49;68.39;95496.27;1724034;81;20943;-84
2021/05/16 00:45:22;;;;;;;1.00;0.78;;;;;;;12.48;68.71;95490.27;1699588;81;21035;-83
2021/05/16 00:47:52;;;;;;;;;;;;;;;12.51;68.53;95490.33;1721824;82;21002;-84
2021/05/16 00:50:20;;;;;;;1.50;0.72;;;;;;;12.51;69.04;95495.04;1738640;81;20389;-84
2021/05/16 00:52:46;;;;;;;1.87;0.70;;;;;;;12.48;69.01;95485.05;1713652;81;20955;-83
2021/05/16 00:55:12;;;;;;;0.95;0.80;;;;;;;12.46;69.06;95488.89;1711782;82;21307;-83
2021/05/16 00:57:39;;;;;;;1.70;0.90;;;;;;;12.43;69.41;95488.81;1729837;82;20974;-83
2021/05/16 01:00:07;;;;;;;0.88;0.70;;;;;;;12.40;69.72;95491.06;1731321;81;21360;-83
2021/05/16 01:02:33;;;;;;;0.90;0.80;;;;;;;12.37;69.68;95492.80;1725516;81;20963;-83
2021/05/16 01:04:59;;;;;;;1.10;0.65;;;;;;;12.35;69.46;95498.19;1718411;81;20990;-83
2021/05/16 01:07:25;;;;;;;1.35;0.90;;;;;;;12.36;69.44;95493.78;1730671;81;20923;-83
2021/05/16 01:09:51;;;;;;;1.12;0.65;;;;;;;12.35;69.90;95490.88;1717872;82;21001;-83
2021/05/16 01:12:17;;;;;;;1.27;0.70;;;;;;;12.30;69.84;95488.93;1707775;81;21348;-83
2021/05/16 01:14:45;;;;;;;1.82;0.80;;;;;;;12.27;70.27;95491.97;1711848;81;20955;-83
2021/05/16 01:17:12;;;;;;;1.15;0.82;;;;;;;12.22;70.20;95487.91;1718110;82;20999;-83
2021/05/16 01:19:38;;;;;;;2.05;0.70;;;;;;;12.17;70.27;95487.22;1722593;82;20954;-83
2021/05/16 01:22:06;;;;;;;1.95;0.80;;;;;;;12.13;70.70;95486.57;1711412;81;20971;-83
2021/05/16 01:24:32;;;;;;;1.47;1.37;;;;;;;12.12;70.58;95484.47;1712981;81;20970;-83
2021/05/16 01:27:00;;;;;;;0.90;0.70;;;;;;;12.12;70.74;95487.58;1731348;81;21022;-83
2021/05/16 01:29:26;;;;;;;1.10;0.90;;;;;;;12.10;71.12;95484.40;1713895;82;21011;-84
2021/05/16 01:31:52;;;;;;;1.52;0.80;;;;;;;12.06;71.34;95482.73;1711403;81;21010;-82
2021/05/16 01:34:18;;;;;;;1.27;0.90;;;;;;;12.04;71.08;95486.05;1732620;81;20977;-82
2021/05/16 01:36:44;;;;;;;0.90;0.78;;;;;;;12.01;71.53;95476.04;1731045;81;20986;-83
2021/05/16 01:39:12;;;;;;;3.27;0.82;;;;;;;11.96;71.63;95483.70;1712087;81;21026;-82
2021/05/16 01:41:38;;;;;;;2.55;0.80;;;;;;;11.93;71.91;95477.11;1713577;81;21034;-82
2021/05/16 01:44:05;;;;;;;1.25;0.80;;;;;;;11.93;72.02;95477.11;1722458;81;20991;-82
2021/05/16 01:46:31;;;;;;;1.12;0.90;;;;;;;11.95;72.08;95486.80;1740509;81;21026;-82
2021/05/16 01:48:57;;;;;;;1.90;1.02;;;;;;;11.94;72.00;95487.81;1718431;81;20967;-83
2021/05/16 01:51:23;;;;;;;1.55;0.93;;;;;;;11.92;72.05;95490.34;1738392;81;20947;-82
2021/05/16 01:53:49;;;;;;;1.15;0.80;;;;;;;11.90;72.21;95491.86;1720164;81;20955;-82
2021/05/16 01:56:25;;;;;;;1.47;1.20;;;;;;;11.88;72.22;95487.37;1717771;81;20954;-82
2021/05/16 01:58:51;;;;;;;3.27;1.20;;;;;;;11.89;72.33;95495.47;1702480;82;20963;-82
2021/05/16 02:01:17;;;;;;;2.30;0.82;;;;;;;11.90;72.62;95489.76;1712083;81;21050;-82
2021/05/16 02:03:44;;;;;;;2.20;0.85;;;;;;;11.87;73.22;95485.75;1728062;81;20998;-82
2021/05/16 02:06:10;;;;;;;2.77;1.75;;;;;;;11.91;73.36;95491.35;1734370;80;21029;-82
2021/05/16 02:08:36;;;;;;;1.72;0.93;;;;;;;11.86;73.94;95488.06;1724928;80;20965;-82
2021/05/16 02:11:04;;;;;;;2.15;0.90;;;;;;;11.80;74.21;95488.91;1725095;82;21018;-82
2021/05/16 02:13:31;;;;;;;2.12;1.05;;;;;;;11.73;74.20;95479.83;1748720;80;21034;-82
2021/05/16 02:15:56;;;;;;;1.42;0.90;;;;;;;11.68;74.68;95489.25;1739439;82;21062;-81
2021/05/16 02:18:23;;;;;;;1.32;0.78;;;;;;;11.65;74.73;95486.58;1751239;80;20974;-81
2021/05/16 02:20:49;;;;;;;1.77;1.10;;;;;;;11.64;74.44;95482.88;1753915;82;21101;-82
2021/05/16 02:23:15;;;;;;;2.20;1.32;;;;;;;11.65;74.92;95481.37;1754453;80;21287;-82
2021/05/16 02:25:41;;;;;;;2.42;0.78;;;;;;;11.64;75.37;95489.39;1733359;80;20954;-81
2021/05/16 02:28:07;;;;;;;1.50;1.20;;;;;;;11.64;75.27;95489.39;1753980;80;20950;-81
2021/05/16 02:30:33;;;;;;;2.17;1.10;;;;;;;11.63;75.93;95495.60;1735121;80;20946;-81
2021/05/16 02:32:59;;;;;;;1.95;1.00;;;;;;;11.59;75.81;95488.72;1700184;82;20982;-81
2021/05/16 02:35:25;;;;;;;1.17;1.00;;;;;;;11.58;76.23;95488.43;1725339;82;20938;-81
2021/05/16 02:37:50;;;;;;;1.90;1.40;;;;;;;11.59;75.97;95487.42;1726281;82;21041;-81
2021/05/16 02:40:16;;;;;;;2.15;1.50;;;;;;;11.55;76.51;95485.42;1735005;80;21038;-81
2021/05/16 02:42:42;;;;;;;2.00;1.20;;;;;;;11.50;76.46;95495.67;1736460;82;20964;-81
2021/05/16 02:45:09;;;;;;;2.00;1.30;;;;;;;11.48;76.79;95489.87;1745965;80;20930;-82
2021/05/16 02:47:35;;;;;;;3.75;1.25;;;;;;;11.48;76.86;95491.19;1735513;82;21272;-81
2021/05/16 02:50:01;;;;;;;3.52;1.50;;;;;;;11.50;77.37;95500.88;1753816;82;20947;-81
2021/05/16 02:52:26;;;;;;;1.72;1.40;;;;;;;11.49;77.04;95495.38;1754034;80;20923;-81
2021/05/16 02:54:52;;;;;;;2.12;1.92;;;;;;;11.48;77.40;95490.68;1739741;80;21247;-82
2021/05/16 02:57:18;;;;;;;2.83;1.32;;;;;;;11.45;77.39;95493.70;1729025;82;20974;-82
2021/05/16 02:59:43;;;;;;;1.22;1.00;;;;;;;11.42;77.48;95488.42;1716756;82;20950;-81
2021/05/16 03:02:09;;;;;;;2.65;1.10;;;;;;;11.45;77.40;95482.50;1744451;80;20953;-81
2021/05/16 03:04:35;;;;;;;2.55;1.25;;;;;;;11.46;77.62;95480.19;1744209;82;21372;-81
2021/05/16 03:07:00;;;;;;;3.45;1.30;;;;;;;11.47;77.55;95475.28;1740522;81;21050;-81
2021/05/16 03:09:29;;;;;;;3.15;1.25;;;;;;;11.49;77.84;95471.46;1737107;81;20954;-82
2021/05/16 03:11:54;;;;;;;1.47;0.95;;;;;;;11.47;77.67;95466.18;1714005;81;20987;-81
2021/05/16 03:14:19;;;;;;;2.30;1.65;;;;;;;11.43;77.83;95462.70;1730276;82;20963;-81
2021/05/16 03:16:45;;;;;;;1.75;1.20;;;;;;;11.42;77.89;95468.11;1714443;81;21057;-81
2021/05/16 03:19:12;;;;;;;1.20;1.10;;;;;;;11.41;77.89;95469.92;1712091;81;21026;-81
2021/05/16 03:21:38;;;;;;;1.62;1.02;;;;;;;11.41;77.56;95464.72;1712863;81;21043;-81
2021/05/16 03:24:05;;;;;;;1.90;1.30;;;;;;;11.42;77.96;95461.11;1715090;81;21046;-81
2021/05/16 03:26:31;;;;;;;3.55;1.32;;;;;;;11.45;78.30;95460.39;1740575;82;20963;-81
2021/05/16 03:28:57;;;;;;;1.57;1.47;;;;;;;11.41;78.20;95450.91;1721040;81;21021;-81
2021/05/16 03:31:22;;;;;;;1.62;1.20;;;;;;;11.35;78.09;95449.13;1711900;81;20955;-81
2021/05/16 03:33:48;;;;;;;2.90;1.20;;;;;;;11.32;78.11;95452.16;1727656;81;20935;-81
2021/05/16 03:36:14;;;;;;;1.10;1.00;;;;;;;11.33;78.27;95448.55;1717621;81;21291;-81
2021/05/16 03:38:41;;;;;;;2.90;1.45;;;;;;;11.33;78.43;95453.24;1712523;81;21015;-81
2021/05/16 03:41:06;;;;;;;1.60;1.22;;;;;;;11.34;77.96;95453.53;1711871;81;21244;-81
2021/05/16 03:43:32;;;;;;;1.50;1.02;;;;;;;11.33;78.06;95444.14;1712605;81;20994;-81
2021/05/16 03:45:58;;;;;;;3.70;1.17;;;;;;;11.32;78.21;95449.05;1711435;81;21070;-81
2021/05/16 03:48:23;;;;;;;1.42;1.00;;;;;;;11.31;78.01;95454.46;1712974;81;21307;-81
2021/05/16 03:50:49;;;;;;;1.80;1.00;;;;;;;11.31;78.63;95451.36;1719733;82;21022;-81
2021/05/16 03:53:15;;;;;;;1.55;1.40;;;;;;;11.32;77.94;95455.55;1723491;81;21030;-81
2021/05/16 03:55:41;;;;;;;1.35;1.25;;;;;;;11.35;78.07;95453.83;1714256;81;21058;-81
2021/05/16 03:58:06;;;;;;;2.40;1.35;;;;;;;11.36;77.99;95447.62;1733102;82;21035;-81
2021/05/16 04:00:32;;;;;;;2.10;1.25;;;;;;;11.37;78.16;95454.91;1705961;82;21015;-81
2021/05/16 04:02:58;;;;;;;2.58;1.20;;;;;;;11.34;78.65;95450.14;1716615;81;21034;-81
2021/05/16 04:05:23;;;;;;;2.70;1.00;;;;;;;11.35;79.02;95447.83;1713234;81;21379;-81
2021/05/16 04:07:49;;;;;;;3.12;1.20;;;;;;;11.36;79.04;95442.41;1712363;81;20938;-81
2021/05/16 04:10:15;;;;;;;1.72;0.90;;;;;;;11.39;79.12;95447.23;1739219;81;20947;-81
2021/05/16 04:12:41;;;;;;;1.92;1.55;;;;;;;11.42;79.67;95455.91;1719460;81;20955;-81
2021/05/16 04:15:07;;;;;;;3.02;1.37;;;;;;;11.42;79.57;95463.70;1714142;81;21299;-81
2021/05/16 04:17:34;;;;;;;3.45;1.25;;;;;;;11.46;79.85;95461.98;1725691;82;21367;-81
2021/05/16 04:20:00;;;;;;;5.47;1.12;;;;;;;11.48;79.99;95465.17;1720385;82;20907;-81
2021/05/16 04:22:26;;;;;;;2.05;1.00;;;;;;;11.51;79.96;95451.73;1731728;81;21359;-81
2021/05/16 04:24:53;;;;;;;3.30;1.45;;;;;;;11.50;78.77;95442.34;1711886;82;20963;-81
2021/05/16 04:27:18;;;;;;;0.98;0.88;;;;;;;11.51;79.64;95447.33;1712175;81;21003;-81
2021/05/16 04:29:44;;;;;;;3.00;1.10;;;;;;;11.51;79.21;95462.14;1713020;82;21283;-81
2021/05/16 04:32:10;;;;;;;2.95;1.20;;;;;;;11.48;78.96;95457.36;1730133;81;20959;-81
2021/05/16 04:34:36;;;;;;;2.02;0.80;;;;;;;11.48;78.69;95458.16;1715618;81;21014;-81
2021/05/16 04:37:02;;;;;;;0.95;0.70;;;;;;;11.51;78.59;95444.73;1725155;81;21006;-81
2021/05/16 04:39:28;;;;;;;1.70;1.20;;;;;;;11.56;78.22;95447.52;1718253;81;20958;-81
2021/05/16 04:41:54;;;;;;;1.20;0.90;;;;;;;11.61;78.53;95450.28;1711871;82;20982;-81
2021/05/16 04:44:19;;;;;;;1.77;1.05;;;;;;;11.60;78.18;95442.19;1729825;81;20951;-81
2021/05/16 04:46:45;;;;;;;1.15;0.93;;;;;;;11.59;78.12;95449.70;1718583;82;21014;-81
2021/05/16 04:49:11;;;;;;;1.47;0.80;;;;;;;11.60;78.23;95447.89;1727377;82;21284;-81
2021/05/16 04:51:37;;;;;;;1.40;1.00;;;;;;;11.61;77.72;95449.48;1732561;81;20967;-81
2021/05/16 04:54:03;;;;;;;1.60;0.98;;;;;;;11.62;77.95;95446.67;1734052;81;20955;-81
2021/05/16 04:56:28;;;;;;;1.60;1.00;;;;;;;11.61;77.11;95435.97;1651225;85;21086;-81
2021/05/16 04:58:54;;;;;;;2.22;1.02;;;;;;;11.62;77.73;95441.97;1712932;81;20938;-81
2021/05/16 05:01:23;;;;;;;0.82;0.70;;;;;;;11.62;77.38;95438.06;1714482;81;20955;-81
2021/05/16 05:03:49;;;;;;;1.42;0.80;;;;;;;11.61;77.37;95439.88;1728566;81;21244;-82
2021/05/16 05:06:14;;;;;;;1.20;0.90;;;;;;;11.64;77.31;95446.45;1716314;81;20967;-81
2021/05/16 05:08:40;;;;;;;1.32;0.60;;;;;;;11.66;77.24;95437.42;1712247;81;20978;-81
2021/05/16 05:11:06;;;;;;;1.42;0.90;;;;;;;11.69;77.33;95450.52;1713822;82;21050;-81
2021/05/16 05:13:32;;;;;;;1.80;0.80;;;;;;;11.67;77.01;95441.62;1730081;81;21327;-81
2021/05/16 05:15:58;;;;;;;1.07;0.80;;;;;;;11.69;77.45;95437.50;1731146;82;21105;-81
2021/05/16 05:18:24;;;;;;;3.27;1.40;;;;;;;11.69;77.19;95447.91;1715042;81;20990;-81
2021/05/16 05:20:50;;;;;;;4.80;3.30;;;;;;;11.73;77.15;95445.20;1711936;81;21276;-81
2021/05/16 05:23:17;;;;;;;1.50;1.22;;;;;;;11.79;77.15;95444.88;1728939;82;20935;-81
2021/05/16 05:25:42;;;;;;;1.22;0.70;;;;;;;11.83;77.36;95449.44;1715414;81;21014;-81
2021/05/16 05:28:08;;;;;;;1.87;1.15;;;;;;;11.84;77.06;95450.24;1712345;82;21057;-81
2021/05/16 05:30:34;;;;;;;2.12;0.80;;;;;;;11.85;77.15;95444.82;1731750;81;21006;-81
2021/05/16 05:33:00;;;;;;;0.85;0.53;;;;;;;11.83;77.09;95438.23;1719384;82;20971;-81
2021/05/16 05:35:26;;;;;;;1.52;0.70;;;;;;;11.81;77.01;95450.16;1739988;81;21312;-81
2021/05/16 05:37:52;;;;;;;1.15;0.72;;;;;;;11.79;77.00;95444.38;1735583;81;21011;-81
2021/05/16 05:40:17;;;;;;;0.80;0.62;;;;;;;11.78;77.06;95454.47;1710063;81;21077;-81
2021/05/16 05:42:43;;;;;;;1.52;0.78;;;;;;;11.75;76.86;95460.09;1708935;81;21366;-81
2021/05/16 05:45:10;;;;;;;3.98;1.98;;;;;;;11.72;76.71;95456.63;1710588;81;21058;-81
2021/05/16 05:47:36;;;;;;;3.98;0.90;;;;;;;11.65;76.81;95451.95;1721800;82;21027;-81
2021/05/16 05:50:04;;;;;;;0.88;0.50;;;;;;;11.60;76.89;95458.30;1722466;81;20999;-81
2021/05/16 05:52:29;;;;;;;1.40;0.90;;;;;;;11.58;76.74;95463.72;1711578;81;21261;-81
2021/05/16 05:54:55;;;;;;;0.55;0.42;;;;;;;11.56;77.08;95461.83;1712205;81;20940;-81
2021/05/16 05:57:21;;;;;;;2.15;0.65;;;;;;;11.49;76.45;95464.16;1712834;81;20951;-81
2021/05/16 05:59:46;;;;;;;2.62;0.57;;;;;;;11.43;76.80;95466.60;1715500;81;20946;-81
2021/05/16 06:02:12;;;;;;;0.98;0.50;;;;;;;11.38;77.32;95470.81;1715312;82;21280;-81
2021/05/16 06:04:38;;;;;;;0.40;0.40;;;;;;;11.38;77.42;95465.61;1737564;80;21017;-81
2021/05/16 06:07:04;;;;;;;0.33;0.33;;;;;;;11.41;77.92;95467.31;1730595;80;20966;-81
2021/05/16 06:09:32;;;;;;;1.85;0.47;;;;;;;11.45;78.55;95474.70;1738286;82;21046;-81
2021/05/16 06:11:57;;;;;;;0.42;0.37;;;;;;;11.48;78.09;95478.17;1725202;80;21057;-81
2021/05/16 06:14:23;;;;;;;0.50;0.40;;;;;;;11.51;78.20;95482.45;1725371;82;21080;-81
2021/05/16 06:16:49;;;;;;;1.47;0.40;;;;;;;11.55;78.23;95485.42;1727545;80;21346;-81
2021/05/16 06:19:15;;;;;;;2.15;0.40;;;;;;;11.59;78.39;95476.22;1725292;82;21054;-81
2021/05/16 06:21:41;;;;;;;2.10;0.50;;;;;;;11.67;78.94;95478.05;1726070;80;21021;-81
2021/05/16 06:24:09;;;;;;;2.15;0.37;;;;;;;11.75;78.73;95477.52;1725864;80;21274;-81
2021/05/16 06:26:38;;;;;;;0.40;0.40;;;;;;;11.83;78.60;95478.58;1728381;82;21006;-81
2021/05/16 06:29:04;;;;;;;1.47;0.33;;;;;;;11.86;78.54;95471.64;1746585;80;20962;-81
2021/05/16 06:31:30;;;;;;;0.47;0.40;;;;;;;11.88;78.55;95473.05;1726281;80;20985;-81
2021/05/16 06:33:57;;;;;;;1.55;0.50;;;;;;;11.89;78.09;95472.05;1725480;80;21014;-81
2021/05/16 06:36:22;;;;;;;0.75;0.40;;;;;;;11.87;78.31;95472.73;1725496;80;21263;-81
2021/05/16 06:38:48;;;;;;;2.58;0.40;;;;;;;11.86;78.23;95474.25;1725558;82;20931;-81
2021/05/16 06:41:14;;;;;;;0.45;0.42;;;;;;;11.86;77.96;95476.85;1747617;80;20974;-81
2021/05/16 06:43:40;;;;;;;0.75;0.47;;;;;;;11.87;78.08;95475.34;1745984;82;21224;-81
2021/05/16 06:46:06;;;;;;;1.17;0.45;;;;;;;11.89;78.21;95477.75;1728683;80;20970;-81
2021/05/16 06:48:31;;;;;;;1.75;0.30;;;;;;;11.88;78.14;95476.96;1725688;80;20970;-81
2021/05/16 06:50:57;;;;;;;0.82;0.55;;;;;;;11.91;78.18;95483.04;1725359;80;21338;-81
2021/05/16 06:53:23;;;;;;;0.50;0.30;;;;;;;11.96;78.31;95480.59;1737293;82;20985;-81
2021/05/16 06:55:49;;;;;;;0.40;0.30;;;;;;;12.02;78.35;95482.84;1754901;80;20947;-83
2021/05/16 06:58:14;;;;;;;0.50;0.30;;;;;;;12.08;77.97;95486.42;1731149;80;20946;-82
2021/05/16 07:00:40;;;;;;;2.25;1.45;;;;;;;12.13;78.56;95489.17;1725160;80;21275;-82
2021/05/16 07:03:06;;;;;;;1.27;0.30;;;;;;;12.15;77.95;95490.55;1726569;80;20950;-82
2021/05/16 07:05:33;;;;;;;0.50;0.30;;;;;;;12.16;77.74;95481.73;1728698;80;21024;-82
2021/05/16 07:07:59;;;;;;;0.70;0.40;;;;;;;12.17;77.49;95496.84;1743784;81;20973;-82
2021/05/16 07:10:25;;;;;;;1.67;0.50;;;;;;;12.16;77.70;95497.35;1719641;82;21045;-82
2021/05/16 07:12:51;;;;;;;1.22;0.50;;;;;;;12.19;77.91;95505.23;1731413;80;21349;-82
2021/05/16 07:15:17;;;;;;;0.80;0.60;;;;;;;12.18;77.90;95503.14;1726355;82;21014;-82
2021/05/16 07:17:43;;;;;;;2.22;0.80;;;;;;;12.15;77.55;95495.76;1741141;80;21342;-82
2021/05/16 07:20:10;;;;;;;5.62;3.37;;;;;;;12.11;78.16;95505.52;1750301;80;21005;-82
2021/05/16 07:22:36;;;;;;;4.62;4.17;;;;;;;12.09;78.17;95507.03;1725081;80;20994;-82
2021/05/16 07:25:03;;;;;;;5.10;2.77;;;;;;;12.06;78.28;95496.25;1696151;83;21033;-82
2021/05/16 07:27:29;;;;;;;10.58;8.03;;;;;;;12.05;77.90;95505.08;1746873;80;20998;-82
2021/05/16 07:29:55;;;;;;;3.72;3.27;;;;;;;12.05;78.20;95501.17;1725709;82;21259;-81
2021/05/16 07:32:20;;;;;;;1.50;1.40;;;;;;;12.07;78.38;95505.66;1726735;80;21034;-81
2021/05/16 07:34:46;;;;;;;31.77;24.32;;;;;;;12.10;78.20;95506.53;1725871;80;21029;-82
2021/05/16 07:37:12;;;;;;;9.50;8.15;;;;;;;12.10;78.15;95509.13;1725679;80;21057;-82
2021/05/16 07:39:38;;;;;;;9.33;8.43;;;;;;;12.11;77.86;95513.33;1725692;80;21057;-82
2021/05/16 07:42:05;;;;;;;24.27;21.73;;;;;;;12.13;77.66;95516.52;1727264;80;21144;-82
2021/05/16 07:44:30;;;;;;;12.80;11.53;;;;;;;12.09;77.50;95514.05;1728973;80;21302;-82
2021/05/16 07:46:56;;;;;;;6.20;5.65;;;;;;;12.07;77.73;95518.17;1723382;82;20998;-82
2021/05/16 07:49:22;;;;;;;4.80;4.33;;;;;;;12.06;77.32;95521.78;1752921;82;20990;-82
2021/05/16 07:51:48;;;;;;;1.40;1.00;;;;;;;12.10;77.66;95513.84;1753503;82;20942;-82
2021/05/16 07:54:13;;;;;;;1.60;0.50;;;;;;;12.17;77.68;95526.80;1732039;82;20978;-82
2021/05/16 07:56:39;;;;;;;8.50;7.70;;;;;;;12.15;77.41;95517.89;1725534;80;20972;-82
2021/05/16 07:59:05;;;;;;;3.08;2.62;;;;;;;12.16;77.24;95523.90;1725121;80;21001;-82
2021/05/16 08:01:31;;;;;;;3.92;2.37;;;;;;;12.12;77.50;95526.14;1725820;82;21290;-82
2021/05/16 08:03:57;;;;;;;2.50;2.30;;;;;;;12.12;77.72;95530.55;1735231;80;20986;-82
2021/05/16 08:06:23;;;;;;;1.67;0.60;;;;;;;12.11;76.98;95535.47;1728942;80;21037;-83
2021/05/16 08:08:49;;;;;;;1.45;1.15;;;;;;;12.10;76.89;95535.17;1727548;82;20974;-82
2021/05/16 08:11:15;;;;;;;2.20;2.00;;;;;;;12.05;77.17;95543.63;1746010;80;21025;-83
2021/05/16 08:13:40;;;;;;;0.90;0.50;;;;;;;12.07;77.55;95544.72;1725174;80;21235;-83
2021/05/16 08:16:06;;;;;;;5.05;3.87;;;;;;;12.05;76.99;95546.73;1742343;82;21057;-83
2021/05/16 08:18:32;;;;;;;3.10;2.25;;;;;;;12.08;77.86;95541.09;1733675;80;21078;-82
2021/05/16 08:20:57;;;;;;;2.02;1.72;;;;;;;12.15;77.93;95539.23;1751888;80;20990;-83
2021/05/16 08:23:23;;;;;;;1.80;1.00;;;;;;;12.23;77.93;95542.89;1754885;82;21296;-82
2021/05/16 08:25:49;;;;;;;3.25;1.42;;;;;;;12.34;78.46;95544.79;1726731;80;20974;-82
2021/05/16 08:28:15;;;;;;;5.58;4.03;;;;;;;12.41;78.27;95552.06;1726594;80;20934;-82
2021/05/16 08:30:40;;;;;;;3.30;1.67;;;;;;;12.54;78.68;95548.56;1726208;80;21259;-82
2021/05/16 08:33:06;;;;;;;3.65;3.10;;;;;;;12.63;77.89;95548.56;1725812;80;20939;-82
2021/05/16 08:35:33;;;;;;;2.10;1.20;;;;;;;12.66;77.22;95553.34;1726375;80;20986;-82
2021/05/16 08:37:59;;;;;;;1.02;0.60;;;;;;;12.73;77.74;95545.48;1727789;80;21287;-82
2021/05/16 08:40:25;;;;;;;2.10;1.30;;;;;;;12.83;78.43;95545.77;1725953;82;21098;-83
2021/05/16 08:42:51;;;;;;;2.72;0.90;;;;;;;12.92;78.50;95547.09;1716249;82;21030;-83
2021/05/16 08:45:18;;;;;;;0.98;0.40;;;;;;;13.02;78.55;95547.91;1729177;80;21339;-82
2021/05/16 08:47:44;;;;;;;3.30;1.07;;;;;;;13.13;78.82;95543.25;1725907;80;21343;-82
2021/05/16 08:50:13;;;;;;;4.92;1.50;;;;;;;13.25;77.48;95551.18;1746286;80;21010;-83
2021/05/16 08:52:39;;;;;;;4.60;1.50;;;;;;;13.29;77.72;95553.12;1724601;80;21094;-82
2021/05/16 08:55:07;;;;;;;4.22;1.20;;;;;;;13.42;78.16;95550.87;1725802;82;21042;-82
2021/05/16 08:57:33;;;;;;;4.67;4.00;;;;;;;13.50;78.21;95554.00;1726469;80;21006;-82
2021/05/16 09:00:16;;;;;;;0.88;0.50;;;;;;;13.57;77.71;95553.91;1726202;80;21293;-82
2021/05/16 09:03:06;;;;;;;1.15;0.50;;;;;;;13.60;77.13;95557.87;1729059;80;21069;-83
2021/05/16 09:05:41;;;;;;;2.58;0.93;;;;;;;13.64;76.70;95557.21;1736680;80;21022;-83
2021/05/16 09:08:12;;;;;;;5.53;4.70;;;;;;;13.64;76.39;95557.21;1727785;80;20962;-83
2021/05/16 09:10:40;;;;;;;7.20;5.55;;;;;;;13.56;75.50;95553.61;1725065;82;21018;-83
2021/05/16 09:13:16;;;;;;;1.72;1.30;;;;;;;13.50;75.75;95557.91;1746216;80;21065;-83
2021/05/16 09:15:49;;;;;;;2.40;1.70;;;;;;;13.53;75.41;95561.09;1725637;80;20966;-83
2021/05/16 09:18:15;;;;;;;1.42;0.68;;;;;;;13.51;76.07;95566.53;1712596;82;21110;-83
2021/05/16 09:20:40;;;;;;;2.12;0.72;;;;;;;13.53;75.82;95566.31;1705913;82;20939;-83
2021/05/16 09:23:07;;;;;;;1.22;0.88;;;;;;;13.60;75.34;95563.10;1754677;80;20911;-83
2021/05/16 09:25:34;;;;;;;2.22;1.70;;;;;;;13.65;75.45;95570.55;1733513;80;20982;-82
2021/05/16 09:28:13;;;;;;;3.45;1.20;;;;;;;13.76;75.68;95571.63;1725557;80;20965;-82
2021/05/16 09:30:40;;;;;;;1.45;0.90;;;;;;;13.89;75.68;95565.44;1725067;82;21061;-83
2021/05/16 09:33:14;;;;;;;1.42;1.00;;;;;;;13.94;75.35;95565.05;1731108;80;21018;-82
2021/05/16 09:35:51;;;;;;;3.52;1.57;;;;;;;14.04;76.31;95567.94;1737678;82;21010;-83
2021/05/16 09:38:19;;;;;;;3.80;1.60;;;;;;;14.15;75.58;95567.66;1725831;80;20978;-83
2021/05/16 09:40:49;;;;;;;5.10;2.02;;;;;;;14.20;75.13;95566.50;1725147;82;21339;-82
2021/05/16 09:43:26;;;;;;;4.28;2.15;;;;;;;14.33;76.11;95565.52;1722969;80;21056;-81
2021/05/16 09:46:05;;;;;;;1.42;1.12;;;;;;;14.41;76.26;95565.96;1734995;80;20990;-82
2021/05/16 09:48:46;;;;;;;2.00;1.15;;;;;;;14.46;74.83;95561.91;1733569;80;21006;-82
2021/05/16 09:51:18;;;;;;;4.12;3.83;;;;;;;14.52;75.24;95570.17;1725366;80;20969;-82
2021/05/16 09:53:50;;;;;;;2.62;1.70;;;;;;;14.64;75.72;95566.55;1725722;80;21041;-82
2021/05/16 09:56:28;;;;;;;2.10;1.05;;;;;;;14.71;75.92;95563.30;1725618;80;21041;-82
2021/05/16 09:58:56;;;;;;;2.60;0.90;;;;;;;14.76;74.97;95561.30;1725331;80;21054;-82
2021/05/16 10:01:24;;;;;;;2.52;1.22;;;;;;;14.88;74.81;95566.54;1730126;80;21014;-81
2021/05/16 10:03:50;;;;;;;2.33;1.62;;;;;;;14.98;74.61;95568.08;1725260;82;21058;-82
2021/05/16 10:06:21;;;;;;;3.00;1.92;;;;;;;15.09;74.55;95565.16;1708199;80;20993;-82
2021/05/16 10:08:49;;;;;;;1.42;1.07;;;;;;;15.13;74.15;95564.97;1727113;81;21280;-82
2021/05/16 10:11:21;;;;;;;2.20;1.00;;;;;;;15.13;74.21;95564.97;1713943;81;21035;-82
2021/05/16 10:13:57;;;;;;;2.22;1.00;;;;;;;15.11;74.43;95561.79;1711625;81;20966;-82
2021/05/16 10:16:23;;;;;;;2.10;1.27;;;;;;;15.04;73.25;95563.23;1733293;81;20991;-82
2021/05/16 10:18:50;;;;;;;2.50;1.10;;;;;;;14.95;74.21;95564.08;1701329;82;21094;-82
2021/05/16 10:21:15;;;;;;;1.02;0.65;;;;;;;14.85;73.34;95569.10;1728612;81;21082;-82
2021/05/16 10:23:41;;;;;;;0.78;0.75;;;;;;;14.71;73.24;95568.53;1735311;81;21353;-82
2021/05/16 10:26:24;;;;;;;1.55;0.90;;;;;;;14.57;72.82;95570.28;1712261;82;21034;-82
2021/05/16 10:29:06;;;;;;;1.90;1.25;;;;;;;14.47;73.63;95568.20;1712185;81;20943;-82
2021/05/16 10:31:55;;;;;;;1.65;1.45;;;;;;;14.38;73.12;95572.16;1711878;81;20943;-82
2021/05/16 10:34:39;;;;;;;2.20;1.22;;;;;;;14.29;74.06;95576.90;1709442;81;21297;-82
2021/05/16 10:37:05;;;;;;;3.15;1.00;;;;;;;14.23;74.59;95581.72;1712111;82;20947;-82
2021/05/16 10:39:45;;;;;;;2.85;1.62;;;;;;;14.13;75.36;95591.91;1734248;81;20939;-82
2021/05/16 10:42:16;;;;;;;3.00;1.52;;;;;;;14.05;74.79;95589.63;1696110;82;20994;-82
2021/05/16 10:45:15;;;;;;;2.63;1.50;;;;;;;13.90;75.04;95590.02;1710499;81;20959;-83
2021/05/16 10:47:47;;;;;;;3.55;2.10;;;;;;;13.69;74.63;95600.44;1712839;81;21038;-82
2021/05/16 10:50:27;;;;;;;;;;;;;;;13.49;74.89;95607.69;1713788;81;20938;-82
2021/05/16 10:53:15;;;;;;;3.40;2.30;;;;;;;13.40;75.57;95610.31;1724795;81;20440;-83
2021/05/16 10:55:51;;;;;;;6.45;2.42;;;;;;;13.27;74.88;95611.76;1714647;81;20955;-82
2021/05/16 10:58:39;;;;;;;6.33;2.55;;;;;;;13.13;75.06;95617.58;1712785;81;21007;-83
2021/05/16 11:01:33;;;;;;;2.92;1.50;;;;;;;13.01;75.17;95623.20;1714034;81;20915;-83
2021/05/16 11:04:01;;;;;;;4.10;1.98;;;;;;;12.92;75.77;95616.18;1712168;81;20970;-83
2021/05/16 11:06:46;;;;;;;3.02;1.30;;;;;;;12.88;76.06;95619.73;1739695;80;21003;-82
2021/05/16 11:09:13;;;;;;;5.10;1.42;;;;;;;12.87;76.35;95619.44;1725102;80;20978;-82
2021/05/16 11:11:53;;;;;;;4.53;1.27;;;;;;;12.83;76.11;95618.76;1725180;80;21001;-83
2021/05/16 11:14:29;;;;;;;3.50;1.37;;;;;;;12.74;76.23;95616.14;1700118;82;20962;-82
2021/05/16 11:17:03;;;;;;;2.50;1.40;;;;;;;12.69;76.56;95613.36;1727747;80;20960;-82
2021/05/16 11:19:32;;;;;;;1.32;0.95;;;;;;;12.68;76.90;95613.86;1740538;82;21346;-82
2021/05/16 11:22:16;;;;;;;4.08;1.10;;;;;;;12.68;76.90;95612.56;1752947;80;20985;-82
2021/05/16 11:24:49;;;;;;;2.90;0.93;;;;;;;12.68;76.84;95607.34;1728423;80;20942;-83
2021/05/16 11:27:27;;;;;;;1.55;0.65;;;;;;;12.73;77.32;95605.43;1725392;80;21017;-82
2021/05/16 11:29:59;;;;;;;1.67;0.60;;;;;;;12.75;76.97;95598.98;1725902;80;21002;-82
2021/05/16 11:32:33;;;;;;;2.80;2.15;;;;;;;12.76;76.97;95600.58;1724323;82;20966;-82
2021/05/16 11:35:15;;;;;;;3.30;2.92;;;;;;;12.80;77.22;95597.83;1724488;80;20998;-82
2021/05/16 11:37:42;;;;;;;1.80;1.15;;;;;;;12.89;77.70;95593.95;1743218;80;20926;-82